createdAt,value
2023-05-01T00:00:10.375Z,29.25
2023-05-01T00:01:10.368Z,29.26
2023-05-01T00:02:10.390Z,29.31
2023-05-01T00:03:10.686Z,29.28
2023-05-01T00:04:10.639Z,29.31
2023-05-01T00:05:10.443Z,29.28
2023-05-01T00:06:10.403Z,29.31
2023-05-01T00:07:10.319Z,29.31
2023-05-01T00:08:10.314Z,29.38
2023-05-01T00:09:10.288Z,29.29
2023-05-01T00:10:10.322Z,29.28
2023-05-01T00:11:10.284Z,29.29
2023-05-01T00:12:10.301Z,29.26
2023-05-01T00:13:10.285Z,29.29
2023-05-01T00:14:10.263Z,29.26
2023-05-01T00:15:10.266Z,29.29
2023-05-01T00:16:10.446Z,29.32
2023-05-01T00:17:10.348Z,29.29
2023-05-01T00:18:10.461Z,29.37
2023-05-01T00:19:10.466Z,29.31
2023-05-01T00:20:10.510Z,29.32
2023-05-01T00:21:10.519Z,29.34
2023-05-01T00:22:10.538Z,29.35
2023-05-01T00:23:10.513Z,29.32
2023-05-01T00:24:10.505Z,29.34
2023-05-01T00:25:10.522Z,29.34
2023-05-01T00:26:10.518Z,29.38
2023-05-01T00:27:10.554Z,29.32
2023-05-01T00:28:10.576Z,29.36
2023-05-01T00:29:10.646Z,29.32
2023-05-01T00:30:10.668Z,29.34
2023-05-01T00:31:10.689Z,29.35
2023-05-01T00:32:10.780Z,29.33
2023-05-01T00:33:10.851Z,29.32
2023-05-01T00:34:10.755Z,29.32
2023-05-01T00:35:10.763Z,29.32
2023-05-01T00:36:10.749Z,29.30
2023-05-01T00:37:10.734Z,29.33
2023-05-01T00:38:10.716Z,29.35
2023-05-01T00:39:10.703Z,29.33
2023-05-01T00:40:10.707Z,29.33
2023-05-01T00:41:10.740Z,29.30
2023-05-01T00:42:10.708Z,29.36
2023-05-01T00:43:10.689Z,29.39
2023-05-01T00:44:10.689Z,29.34
2023-05-01T00:45:10.691Z,29.36
2023-05-01T00:46:10.712Z,29.39
2023-05-01T00:47:10.681Z,29.39
2023-05-01T00:48:10.839Z,29.40
2023-05-01T00:49:10.629Z,29.36
2023-05-01T00:50:10.635Z,29.36
2023-05-01T00:51:10.620Z,29.33
2023-05-01T00:52:10.637Z,29.33
2023-05-01T00:53:10.601Z,29.33
2023-05-01T00:54:10.592Z,29.37
2023-05-01T00:55:10.625Z,29.37
2023-05-01T00:56:10.642Z,29.36
2023-05-01T00:57:10.565Z,29.40
2023-05-01T00:58:10.557Z,29.39
2023-05-01T00:59:10.556Z,29.36
2023-05-01T01:00:10.549Z,29.36
2023-05-01T01:01:10.579Z,29.36
2023-05-01T01:02:10.505Z,29.40
2023-05-01T01:03:10.556Z,29.37
2023-05-01T01:04:10.514Z,29.40
2023-05-01T01:05:10.468Z,29.37
2023-05-01T01:06:10.501Z,29.39
2023-05-01T01:07:10.471Z,29.33
2023-05-01T01:08:10.503Z,29.39
2023-05-01T01:09:10.457Z,29.37
2023-05-01T01:10:10.490Z,29.39
2023-05-01T01:11:10.459Z,29.43
2023-05-01T01:12:10.473Z,29.43
2023-05-01T01:13:10.465Z,29.37
2023-05-01T01:14:10.446Z,29.42
2023-05-01T01:15:10.454Z,29.42
2023-05-01T01:16:10.426Z,29.43
2023-05-01T01:17:10.559Z,29.40
2023-05-01T01:18:10.447Z,29.37
2023-05-01T01:19:10.372Z,29.42
2023-05-01T01:20:10.371Z,29.42
2023-05-01T01:21:10.347Z,29.43
2023-05-01T01:22:10.332Z,29.44
2023-05-01T01:23:10.319Z,29.42
2023-05-01T01:24:10.315Z,29.42
2023-05-01T01:25:10.318Z,29.43
2023-05-01T01:26:10.310Z,29.39
2023-05-01T01:27:10.289Z,29.40
2023-05-01T01:28:10.278Z,29.43
2023-05-01T01:29:10.293Z,29.40
2023-05-01T01:30:10.276Z,29.40
2023-05-01T01:31:10.297Z,29.43
2023-05-01T01:32:10.257Z,29.40
2023-05-01T01:33:10.291Z,29.42
2023-05-01T01:34:10.228Z,29.36
2023-05-01T01:35:10.219Z,29.42
2023-05-01T01:36:10.219Z,29.42
2023-05-01T01:37:10.192Z,29.46
2023-05-01T01:38:10.199Z,29.44
2023-05-01T01:39:10.170Z,29.40
2023-05-01T01:40:10.161Z,29.40
2023-05-01T01:41:10.160Z,29.44
2023-05-01T01:42:10.160Z,29.44
2023-05-01T01:43:10.139Z,29.39
2023-05-01T01:44:10.147Z,29.42
2023-05-01T01:45:10.142Z,29.43
2023-05-01T01:46:10.270Z,29.43
2023-05-01T01:47:10.221Z,29.43
2023-05-01T01:48:10.280Z,29.46
2023-05-01T01:49:10.252Z,29.43
2023-05-01T01:50:10.257Z,29.44
2023-05-01T01:51:10.280Z,29.43
2023-05-01T01:52:10.254Z,29.43
2023-05-01T01:53:10.259Z,29.39
2023-05-01T01:54:10.255Z,29.42
2023-05-01T01:55:10.243Z,29.44
2023-05-01T01:56:10.330Z,29.40
2023-05-01T01:57:10.227Z,29.43
2023-05-01T01:58:10.219Z,29.43
2023-05-01T01:59:10.197Z,29.43
2023-05-01T02:00:10.194Z,29.43
2023-05-01T02:01:10.182Z,29.46
2023-05-01T02:02:10.217Z,29.43
2023-05-01T02:03:10.250Z,29.46
2023-05-01T02:04:10.243Z,29.43
2023-05-01T02:05:10.120Z,29.42
2023-05-01T02:06:10.142Z,29.42
2023-05-01T02:07:10.104Z,29.44
2023-05-01T02:08:10.116Z,29.37
2023-05-01T02:09:10.087Z,29.40
2023-05-01T02:10:10.086Z,29.46
2023-05-01T02:11:10.080Z,29.44
2023-05-01T02:12:10.044Z,29.43
2023-05-01T02:13:10.047Z,29.38
2023-05-01T02:14:10.024Z,29.38
2023-05-01T02:15:10.010Z,29.40
2023-05-01T02:16:10.011Z,29.43
2023-05-01T02:17:10.000Z,29.46
2023-05-01T02:18:10.035Z,29.39
2023-05-01T02:19:09.962Z,29.41
2023-05-01T02:20:09.966Z,29.43
2023-05-01T02:21:09.971Z,29.39
2023-05-01T02:22:09.957Z,29.40
2023-05-01T02:23:09.939Z,29.40
2023-05-01T02:24:09.936Z,29.37
2023-05-01T02:25:09.917Z,29.43
2023-05-01T02:26:09.912Z,29.43
2023-05-01T02:27:09.921Z,29.38
2023-05-01T02:28:09.909Z,29.41
2023-05-01T02:29:09.899Z,29.40
2023-05-01T02:30:09.900Z,29.43
2023-05-01T02:31:09.972Z,29.38
2023-05-01T02:32:09.888Z,29.47
2023-05-01T02:33:09.966Z,29.43
2023-05-01T02:34:09.895Z,29.46
2023-05-01T02:35:09.890Z,29.40
2023-05-01T02:36:09.892Z,29.41
2023-05-01T02:37:09.871Z,29.45
2023-05-01T02:38:09.868Z,29.44
2023-05-01T02:39:09.856Z,29.41
2023-05-01T02:40:09.861Z,29.49
2023-05-01T02:41:09.861Z,29.43
2023-05-01T02:42:09.850Z,29.44
2023-05-01T02:43:09.835Z,29.46
2023-05-01T02:44:09.830Z,29.44
2023-05-01T02:45:09.851Z,29.43
2023-05-01T02:46:09.936Z,29.43
2023-05-01T02:47:09.833Z,29.44
2023-05-01T02:48:09.858Z,29.48
2023-05-01T02:49:09.848Z,29.43
2023-05-01T02:50:09.925Z,29.43
2023-05-01T02:51:09.779Z,29.49
2023-05-01T02:52:09.769Z,29.44
2023-05-01T02:53:09.748Z,29.47
2023-05-01T02:54:09.775Z,29.43
2023-05-01T02:55:09.756Z,29.47
2023-05-01T02:56:09.774Z,29.44
2023-05-01T02:57:09.756Z,29.45
2023-05-01T02:58:09.757Z,29.44
2023-05-01T02:59:09.771Z,29.44
2023-05-01T03:00:09.754Z,29.50
2023-05-01T03:01:09.816Z,29.47
2023-05-01T03:02:09.756Z,29.48
2023-05-01T03:03:09.758Z,29.47
2023-05-01T03:04:09.770Z,29.45
2023-05-01T03:05:09.724Z,29.45
2023-05-01T03:06:09.755Z,29.47
2023-05-01T03:07:09.731Z,29.45
2023-05-01T03:08:09.758Z,29.48
2023-05-01T03:09:09.726Z,29.48
2023-05-01T03:10:09.715Z,29.47
2023-05-01T03:11:09.718Z,29.45
2023-05-01T03:12:09.710Z,29.48
2023-05-01T03:13:09.691Z,29.44
2023-05-01T03:14:09.680Z,29.42
2023-05-01T03:15:09.675Z,29.47
2023-05-01T03:16:09.708Z,29.47
2023-05-01T03:17:09.628Z,29.48
2023-05-01T03:18:09.817Z,29.47
2023-05-01T03:19:09.615Z,29.48
2023-05-01T03:20:09.633Z,29.48
2023-05-01T03:21:09.596Z,29.44
2023-05-01T03:22:09.587Z,29.45
2023-05-01T03:23:09.589Z,29.47
2023-05-01T03:24:09.560Z,29.47
2023-05-01T03:25:09.556Z,29.48
2023-05-01T03:26:09.552Z,29.50
2023-05-01T03:27:09.528Z,29.45
2023-05-01T03:28:09.513Z,29.44
2023-05-01T03:29:09.498Z,29.42
2023-05-01T03:30:09.481Z,29.45
2023-05-01T03:31:09.472Z,29.48
2023-05-01T03:32:09.510Z,29.47
2023-05-01T03:33:09.471Z,29.47
2023-05-01T03:34:09.426Z,29.47
2023-05-01T03:35:09.503Z,29.50
2023-05-01T03:36:09.432Z,29.48
2023-05-01T03:37:09.409Z,29.48
2023-05-01T03:38:09.391Z,29.47
2023-05-01T03:39:09.376Z,29.54
2023-05-01T03:40:09.360Z,29.46
2023-05-01T03:41:09.345Z,29.51
2023-05-01T03:42:09.337Z,29.49
2023-05-01T03:43:09.333Z,29.52
2023-05-01T03:44:09.318Z,29.52
2023-05-01T03:45:09.308Z,29.49
2023-05-01T03:46:09.384Z,29.55
2023-05-01T03:47:09.274Z,29.55
2023-05-01T03:48:09.318Z,29.50
2023-05-01T03:49:09.253Z,29.57
2023-05-01T03:50:09.250Z,29.51
2023-05-01T03:51:09.253Z,29.51
2023-05-01T03:52:09.226Z,29.49
2023-05-01T03:53:09.227Z,29.48
2023-05-01T03:54:09.221Z,29.44
2023-05-01T03:55:09.238Z,29.48
2023-05-01T03:56:09.200Z,29.48
2023-05-01T03:57:09.192Z,29.54
2023-05-01T03:58:09.168Z,29.53
2023-05-01T03:59:09.157Z,29.50
2023-05-01T04:00:09.137Z,29.53
2023-05-01T04:01:09.146Z,29.49
2023-05-01T04:02:09.128Z,29.49
2023-05-01T04:03:09.210Z,29.50
2023-05-01T04:04:09.243Z,29.58
2023-05-01T04:05:09.098Z,29.55
2023-05-01T04:06:09.093Z,29.52
2023-05-01T04:07:09.078Z,29.55
2023-05-01T04:08:09.061Z,29.49
2023-05-01T04:09:09.054Z,29.52
2023-05-01T04:10:09.048Z,29.48
2023-05-01T04:11:09.043Z,29.49
2023-05-01T04:12:09.041Z,29.55
2023-05-01T04:13:09.021Z,29.55
2023-05-01T04:14:09.025Z,29.55
2023-05-01T04:15:09.023Z,29.52
2023-05-01T04:16:09.034Z,29.52
2023-05-01T04:17:08.997Z,29.52
2023-05-01T04:18:09.018Z,29.52
2023-05-01T04:19:08.984Z,29.55
2023-05-01T04:20:08.967Z,29.53
2023-05-01T04:21:08.970Z,29.53
2023-05-01T04:22:08.990Z,29.57
2023-05-01T04:23:08.970Z,29.50
2023-05-01T04:24:08.963Z,29.54
2023-05-01T04:25:08.966Z,29.54
2023-05-01T04:26:08.962Z,29.54
2023-05-01T04:27:08.968Z,29.48
2023-05-01T04:28:08.966Z,29.48
2023-05-01T04:29:08.947Z,29.49
2023-05-01T04:30:08.935Z,29.55
2023-05-01T04:31:08.934Z,29.52
2023-05-01T04:32:08.924Z,29.55
2023-05-01T04:33:08.915Z,29.53
2023-05-01T04:34:08.883Z,29.58
2023-05-01T04:35:08.889Z,29.53
2023-05-01T04:36:08.875Z,29.50
2023-05-01T04:37:08.872Z,29.53
2023-05-01T04:38:08.860Z,29.53
2023-05-01T04:39:08.856Z,29.52
2023-05-01T04:40:11.290Z,29.52
2023-05-01T04:41:08.848Z,29.53
2023-05-01T04:42:08.877Z,29.49
2023-05-01T04:43:08.893Z,29.52
2023-05-01T04:44:08.864Z,29.55
2023-05-01T04:45:08.839Z,29.54
2023-05-01T04:46:08.959Z,29.51
2023-05-01T04:47:08.935Z,29.48
2023-05-01T04:48:08.867Z,29.52
2023-05-01T04:49:08.839Z,29.49
2023-05-01T04:50:08.868Z,29.52
2023-05-01T04:51:08.834Z,29.50
2023-05-01T04:52:08.815Z,29.57
2023-05-01T04:53:08.822Z,29.54
2023-05-01T04:54:08.808Z,29.51
2023-05-01T04:55:08.844Z,29.49
2023-05-01T04:56:08.803Z,29.52
2023-05-01T04:57:08.808Z,29.50
2023-05-01T04:58:08.789Z,29.52
2023-05-01T04:59:08.788Z,29.52
2023-05-01T05:00:08.783Z,29.46
2023-05-01T05:01:08.821Z,29.48
2023-05-01T05:02:08.804Z,29.49
2023-05-01T05:03:08.893Z,29.54
2023-05-01T05:04:08.859Z,29.53
2023-05-01T05:05:08.762Z,29.50
2023-05-01T05:06:08.863Z,29.55
2023-05-01T05:07:08.767Z,29.54
2023-05-01T05:08:08.763Z,29.52
2023-05-01T05:09:08.775Z,29.49
2023-05-01T05:10:08.744Z,29.55
2023-05-01T05:11:08.737Z,29.54
2023-05-01T05:12:08.768Z,29.52
2023-05-01T05:13:08.748Z,29.50
2023-05-01T05:14:08.728Z,29.52
2023-05-01T05:15:08.738Z,29.54
2023-05-01T05:16:08.747Z,29.54
2023-05-01T05:17:08.712Z,29.50
2023-05-01T05:18:08.743Z,29.51
2023-05-01T05:19:08.683Z,29.50
2023-05-01T05:20:08.655Z,29.48
2023-05-01T05:21:08.647Z,29.53
2023-05-01T05:22:08.632Z,29.54
2023-05-01T05:23:08.875Z,29.57
2023-05-01T05:24:08.629Z,29.51
2023-05-01T05:25:08.610Z,29.49
2023-05-01T05:26:08.602Z,29.51
2023-05-01T05:27:08.599Z,29.51
2023-05-01T05:28:08.600Z,29.53
2023-05-01T05:29:08.587Z,29.52
2023-05-01T05:30:08.606Z,29.50
2023-05-01T05:31:08.563Z,29.48
2023-05-01T05:32:08.635Z,29.52
2023-05-01T05:33:08.606Z,29.52
2023-05-01T05:34:08.551Z,29.52
2023-05-01T05:35:08.573Z,29.51
2023-05-01T05:36:08.555Z,29.52
2023-05-01T05:37:08.534Z,29.52
2023-05-01T05:38:09.097Z,29.54
2023-05-01T05:39:08.514Z,29.51
2023-05-01T05:40:08.491Z,29.46
2023-05-01T05:41:08.484Z,29.55
2023-05-01T05:42:08.470Z,29.51
2023-05-01T05:43:08.463Z,29.51
2023-05-01T05:44:08.466Z,29.60
2023-05-01T05:45:08.451Z,29.48
2023-05-01T05:46:08.516Z,29.51
2023-05-01T05:47:08.457Z,29.51
2023-05-01T05:48:08.489Z,29.52
2023-05-01T05:49:08.423Z,29.47
2023-05-01T05:50:08.432Z,29.55
2023-05-01T05:51:08.421Z,29.50
2023-05-01T05:52:08.399Z,29.54
2023-05-01T05:53:08.390Z,29.52
2023-05-01T05:54:08.361Z,29.48
2023-05-01T05:55:08.358Z,29.48
2023-05-01T05:56:08.346Z,29.52
2023-05-01T05:57:08.377Z,29.54
2023-05-01T05:58:08.350Z,29.52
2023-05-01T05:59:08.348Z,29.54
2023-05-01T06:00:08.342Z,29.53
2023-05-01T06:01:08.377Z,29.51
2023-05-01T06:02:08.401Z,29.51
2023-05-01T06:03:08.443Z,29.50
2023-05-01T06:04:08.358Z,29.49
2023-05-01T06:05:08.409Z,29.48
2023-05-01T06:06:08.484Z,29.47
2023-05-01T06:07:08.367Z,29.47
2023-05-01T06:08:08.353Z,29.50
2023-05-01T06:09:08.394Z,29.48
2023-05-01T06:10:08.387Z,29.51
2023-05-01T06:11:08.383Z,29.48
2023-05-01T06:12:08.384Z,29.48
2023-05-01T06:13:13.697Z,29.48
2023-05-01T06:14:09.387Z,29.47
2023-05-01T06:15:08.401Z,29.48
2023-05-01T06:16:08.542Z,29.53
2023-05-01T06:17:08.353Z,29.50
2023-05-01T06:18:08.421Z,29.59
2023-05-01T06:19:08.365Z,29.47
2023-05-01T06:20:08.306Z,29.47
2023-05-01T06:21:08.300Z,29.50
2023-05-01T06:22:08.338Z,29.50
2023-05-01T06:23:08.278Z,29.47
2023-05-01T06:24:08.270Z,29.50
2023-05-01T06:25:08.272Z,29.53
2023-05-01T06:26:08.292Z,29.51
2023-05-01T06:27:08.314Z,29.51
2023-05-01T06:28:08.226Z,29.54
2023-05-01T06:29:08.230Z,29.48
2023-05-01T06:30:08.223Z,29.47
2023-05-01T06:31:08.253Z,29.45
2023-05-01T06:32:08.194Z,29.48
2023-05-01T06:33:08.213Z,29.45
2023-05-01T06:34:08.161Z,29.48
2023-05-01T06:35:08.185Z,29.45
2023-05-01T06:36:08.163Z,29.41
2023-05-01T06:37:08.166Z,29.45
2023-05-01T06:38:08.168Z,29.47
2023-05-01T06:39:08.109Z,29.50
2023-05-01T06:40:08.123Z,29.45
2023-05-01T06:41:08.206Z,29.45
2023-05-01T06:42:08.295Z,29.41
2023-05-01T06:43:08.163Z,29.41
2023-05-01T06:44:08.094Z,29.47
2023-05-01T06:45:08.058Z,29.51
2023-05-01T06:46:08.152Z,29.47
2023-05-01T06:47:08.186Z,29.43
2023-05-01T06:48:08.036Z,29.42
2023-05-01T06:49:07.977Z,29.40
2023-05-01T06:50:07.970Z,29.47
2023-05-01T06:51:07.966Z,29.39
2023-05-01T06:52:07.941Z,29.39
2023-05-01T06:53:07.918Z,29.44
2023-05-01T06:54:07.933Z,29.40
2023-05-01T06:55:07.914Z,29.48
2023-05-01T06:56:07.892Z,29.42
2023-05-01T06:57:07.907Z,29.39
2023-05-01T06:58:22.584Z,29.42
2023-05-01T06:59:08.979Z,29.43
2023-05-01T07:00:07.870Z,29.40
2023-05-01T07:01:07.899Z,29.42
2023-05-01T07:02:07.894Z,29.40
2023-05-01T07:03:07.871Z,29.37
2023-05-01T07:04:07.823Z,29.39
2023-05-01T07:05:07.843Z,29.34
2023-05-01T07:06:07.820Z,29.36
2023-05-01T07:07:07.788Z,29.41
2023-05-01T07:08:07.767Z,29.37
2023-05-01T07:09:07.763Z,29.38
2023-05-01T07:10:07.780Z,29.33
2023-05-01T07:11:07.858Z,29.32
2023-05-01T07:12:07.737Z,29.32
2023-05-01T07:13:07.765Z,29.29
2023-05-01T07:14:07.720Z,29.32
2023-05-01T07:15:07.710Z,29.25
2023-05-01T07:16:07.763Z,29.29
2023-05-01T07:17:07.701Z,29.28
2023-05-01T07:18:07.707Z,29.29
2023-05-01T07:19:07.689Z,29.32
2023-05-01T07:20:07.657Z,29.27
2023-05-01T07:21:07.691Z,29.26
2023-05-01T07:22:07.711Z,29.25
2023-05-01T07:23:07.882Z,29.30
2023-05-01T07:24:07.618Z,29.30
2023-05-01T07:25:07.582Z,29.23
2023-05-01T07:26:08.249Z,29.25
2023-05-01T07:27:07.572Z,29.30
2023-05-01T07:28:07.583Z,29.32
2023-05-01T07:29:07.529Z,29.26
2023-05-01T07:30:07.653Z,29.31
2023-05-01T07:31:07.503Z,29.26
2023-05-01T07:32:07.639Z,29.25
2023-05-01T07:33:07.522Z,29.26
2023-05-01T07:34:07.461Z,29.27
2023-05-01T07:35:07.461Z,29.32
2023-05-01T07:36:07.435Z,29.23
2023-05-01T07:37:07.468Z,29.27
2023-05-01T07:38:07.478Z,29.25
2023-05-01T07:39:07.457Z,29.28
2023-05-01T07:40:08.235Z,29.27
2023-05-01T07:41:07.411Z,29.26
2023-05-01T07:42:07.401Z,29.27
2023-05-01T07:43:07.398Z,29.28
2023-05-01T07:44:07.371Z,29.26
2023-05-01T07:45:07.356Z,29.27
2023-05-01T07:46:07.670Z,29.28
2023-05-01T07:47:07.368Z,29.27
2023-05-01T07:48:07.378Z,29.25
2023-05-01T07:49:07.309Z,29.26
2023-05-01T07:50:07.286Z,29.27
2023-05-01T07:51:07.307Z,29.27
2023-05-01T07:52:07.278Z,29.29
2023-05-01T07:53:07.265Z,29.31
2023-05-01T07:54:07.283Z,29.28
2023-05-01T07:55:07.252Z,29.29
2023-05-01T07:56:07.248Z,29.25
2023-05-01T07:57:07.253Z,29.29
2023-05-01T07:58:07.218Z,29.28
2023-05-01T07:59:07.233Z,29.30
2023-05-01T08:00:07.218Z,29.25
2023-05-01T08:01:07.341Z,29.25
2023-05-01T08:02:07.237Z,29.23
2023-05-01T08:03:07.522Z,29.17
2023-05-01T08:04:07.245Z,29.17
2023-05-01T08:05:07.171Z,29.22
2023-05-01T08:06:07.307Z,29.22
2023-05-01T08:07:07.164Z,29.17
2023-05-01T08:08:07.150Z,29.17
2023-05-01T08:09:07.148Z,29.16
2023-05-01T08:10:07.104Z,29.19
2023-05-01T08:11:07.111Z,29.17
2023-05-01T08:12:07.078Z,29.20
2023-05-01T08:13:07.055Z,29.20
2023-05-01T08:14:07.065Z,29.17
2023-05-01T08:15:07.043Z,29.14
2023-05-01T08:16:07.149Z,29.19
2023-05-01T08:17:07.043Z,29.19
2023-05-01T08:18:07.072Z,29.14
2023-05-01T08:19:07.010Z,29.14
2023-05-01T08:20:07.026Z,29.19
2023-05-01T08:21:07.015Z,29.14
2023-05-01T08:22:06.986Z,29.13
2023-05-01T08:23:06.958Z,29.16
2023-05-01T08:24:06.954Z,29.17
2023-05-01T08:25:06.959Z,29.11
2023-05-01T08:26:06.922Z,29.14
2023-05-01T08:27:06.910Z,29.04
2023-05-01T08:28:06.914Z,29.10
2023-05-01T08:29:06.890Z,29.11
2023-05-01T08:30:06.881Z,29.08
2023-05-01T08:31:06.891Z,29.11
2023-05-01T08:32:06.852Z,29.05
2023-05-01T08:33:06.916Z,29.05
2023-05-01T08:34:06.830Z,29.04
2023-05-01T08:35:06.861Z,29.01
2023-05-01T08:36:06.871Z,28.99
2023-05-01T08:37:06.857Z,28.98
2023-05-01T08:38:06.946Z,29.02
2023-05-01T08:39:06.908Z,28.98
2023-05-01T08:40:06.916Z,29.02
2023-05-01T08:41:06.972Z,28.99
2023-05-01T08:42:06.962Z,28.93
2023-05-01T08:43:06.977Z,28.89
2023-05-01T08:44:06.977Z,28.97
2023-05-01T08:45:06.909Z,28.95
2023-05-01T08:46:06.918Z,28.89
2023-05-01T08:47:06.963Z,28.92
2023-05-01T08:48:06.998Z,28.94
2023-05-01T08:49:06.868Z,28.85
2023-05-01T08:50:06.865Z,28.89
2023-05-01T08:51:06.860Z,28.90
2023-05-01T08:52:06.853Z,28.85
2023-05-01T08:53:06.872Z,28.86
2023-05-01T08:54:06.846Z,28.89
2023-05-01T08:55:06.821Z,28.85
2023-05-01T08:56:06.828Z,28.82
2023-05-01T08:57:08.302Z,28.86
2023-05-01T08:58:06.812Z,28.83
2023-05-01T08:59:06.848Z,28.83
2023-05-01T09:00:06.826Z,28.82
2023-05-01T09:01:06.846Z,28.77
2023-05-01T09:02:06.930Z,28.83
2023-05-01T09:03:06.860Z,28.79
2023-05-01T09:04:06.841Z,28.76
2023-05-01T09:05:06.783Z,28.76
2023-05-01T09:06:06.804Z,28.79
2023-05-01T09:07:06.748Z,28.79
2023-05-01T09:08:06.805Z,28.79
2023-05-01T09:09:06.759Z,28.76
2023-05-01T09:10:06.754Z,28.78
2023-05-01T09:11:06.746Z,28.76
2023-05-01T09:12:06.740Z,28.78
2023-05-01T09:13:06.796Z,28.81
2023-05-01T09:14:06.719Z,28.78
2023-05-01T09:15:07.378Z,28.78
2023-05-01T09:16:06.715Z,28.76
2023-05-01T09:17:06.678Z,28.83
2023-05-01T09:18:06.734Z,28.76
2023-05-01T09:19:06.666Z,28.79
2023-05-01T09:20:06.653Z,28.79
2023-05-01T09:21:06.656Z,28.78
2023-05-01T09:22:06.623Z,28.81
2023-05-01T09:23:06.615Z,28.82
2023-05-01T09:24:06.592Z,28.76
2023-05-01T09:25:06.609Z,28.81
2023-05-01T09:26:06.589Z,28.78
2023-05-01T09:27:06.596Z,28.79
2023-05-01T09:28:06.576Z,28.79
2023-05-01T09:29:06.599Z,28.79
2023-05-01T09:30:06.581Z,28.75
2023-05-01T09:31:06.559Z,28.75
2023-05-01T09:32:06.580Z,28.78
2023-05-01T09:33:06.647Z,28.80
2023-05-01T09:34:06.509Z,28.79
2023-05-01T09:35:06.477Z,28.76
2023-05-01T09:36:06.504Z,28.78
2023-05-01T09:37:06.425Z,28.76
2023-05-01T09:38:06.431Z,28.78
2023-05-01T09:39:06.435Z,28.75
2023-05-01T09:40:06.433Z,28.78
2023-05-01T09:41:06.416Z,28.78
2023-05-01T09:42:06.412Z,28.78
2023-05-01T09:43:06.384Z,28.78
2023-05-01T09:44:06.362Z,28.76
2023-05-01T09:45:06.355Z,28.76
2023-05-01T09:46:06.383Z,28.78
2023-05-01T09:47:06.325Z,28.75
2023-05-01T09:48:06.386Z,28.76
2023-05-01T09:49:06.303Z,28.81
2023-05-01T09:50:06.291Z,28.75
2023-05-01T09:51:06.296Z,28.82
2023-05-01T09:52:06.308Z,28.78
2023-05-01T09:53:06.320Z,28.78
2023-05-01T09:54:06.379Z,28.77
2023-05-01T09:55:06.253Z,28.82
2023-05-01T09:56:06.254Z,28.78
2023-05-01T09:57:06.246Z,28.75
2023-05-01T09:58:06.221Z,28.78
2023-05-01T09:59:06.246Z,28.79
2023-05-01T10:00:06.222Z,28.74
2023-05-01T10:01:06.233Z,28.75
2023-05-01T10:02:06.275Z,28.77
2023-05-01T10:03:07.853Z,28.75
2023-05-01T10:04:06.319Z,28.80
2023-05-01T10:05:06.318Z,28.73
2023-05-01T10:06:06.418Z,28.75
2023-05-01T10:07:06.369Z,28.76
2023-05-01T10:08:06.389Z,28.78
2023-05-01T10:09:06.422Z,28.81
2023-05-01T10:10:06.440Z,28.80
2023-05-01T10:11:06.403Z,28.75
2023-05-01T10:12:06.402Z,28.81
2023-05-01T10:13:06.407Z,28.75
2023-05-01T10:14:06.477Z,28.79
2023-05-01T10:15:23.379Z,28.78
2023-05-01T10:16:07.436Z,28.76
2023-05-01T10:17:06.417Z,28.73
2023-05-01T10:18:06.411Z,28.78
2023-05-01T10:19:06.387Z,28.75
2023-05-01T10:20:07.341Z,28.75
2023-05-01T10:21:06.313Z,28.81
2023-05-01T10:22:06.317Z,28.79
2023-05-01T10:23:06.305Z,28.76
2023-05-01T10:24:06.295Z,28.76
2023-05-01T10:25:06.254Z,28.78
2023-05-01T10:26:07.159Z,28.74
2023-05-01T10:27:06.296Z,28.78
2023-05-01T10:28:06.242Z,28.77
2023-05-01T10:29:06.221Z,28.75
2023-05-01T10:30:06.209Z,28.78
2023-05-01T10:31:06.297Z,28.79
2023-05-01T10:32:06.167Z,28.79
2023-05-01T10:33:06.215Z,28.79
2023-05-01T10:34:06.195Z,28.78
2023-05-01T10:35:06.171Z,28.77
2023-05-01T10:36:06.134Z,28.76
2023-05-01T10:37:06.122Z,28.76
2023-05-01T10:38:06.109Z,28.72
2023-05-01T10:39:06.099Z,28.69
2023-05-01T10:40:06.184Z,28.78
2023-05-01T10:41:06.081Z,28.74
2023-05-01T10:42:06.040Z,28.75
2023-05-01T10:43:06.083Z,28.75
2023-05-01T10:44:06.194Z,28.69
2023-05-01T10:45:06.819Z,28.72
2023-05-01T10:46:06.305Z,28.74
2023-05-01T10:47:06.281Z,28.75
2023-05-01T10:48:06.571Z,28.66
2023-05-01T10:49:06.484Z,28.77
2023-05-01T10:50:06.491Z,28.75
2023-05-01T10:51:06.457Z,28.75
2023-05-01T10:52:06.518Z,28.75
2023-05-01T10:53:06.565Z,28.74
2023-05-01T10:54:06.601Z,28.75
2023-05-01T10:55:06.675Z,28.83
2023-05-01T10:56:06.575Z,28.78
2023-05-01T10:57:06.588Z,28.77
2023-05-01T10:58:06.547Z,28.77
2023-05-01T10:59:06.599Z,28.75
2023-05-01T11:00:06.542Z,28.76
2023-05-01T11:01:06.533Z,28.74
2023-05-01T11:02:06.512Z,28.81
2023-05-01T11:03:06.556Z,28.75
2023-05-01T11:04:06.480Z,28.77
2023-05-01T11:05:06.590Z,28.77
2023-05-01T11:06:06.672Z,28.77
2023-05-01T11:07:06.674Z,28.83
2023-05-01T11:08:06.697Z,28.79
2023-05-01T11:09:06.763Z,28.77
2023-05-01T11:10:06.762Z,28.84
2023-05-01T11:11:06.763Z,28.74
2023-05-01T11:12:06.736Z,28.80
2023-05-01T11:13:06.734Z,28.78
2023-05-01T11:14:06.738Z,28.81
2023-05-01T11:15:06.742Z,28.78
2023-05-01T11:16:06.739Z,28.80
2023-05-01T11:17:06.697Z,28.80
2023-05-01T11:18:06.765Z,28.79
2023-05-01T11:19:06.671Z,28.81
2023-05-01T11:20:06.651Z,28.80
2023-05-01T11:21:06.646Z,28.78
2023-05-01T11:22:06.738Z,28.79
2023-05-01T11:23:06.616Z,28.79
2023-05-01T11:24:06.612Z,28.79
2023-05-01T11:25:06.652Z,28.77
2023-05-01T11:26:06.918Z,28.75
2023-05-01T11:27:06.686Z,28.75
2023-05-01T11:28:06.976Z,28.78
2023-05-01T11:29:06.662Z,28.72
2023-05-01T11:30:06.679Z,28.75
2023-05-01T11:31:06.742Z,28.76
2023-05-01T11:32:06.742Z,28.77
2023-05-01T11:33:09.814Z,28.74
2023-05-01T11:34:06.710Z,28.71
2023-05-01T11:35:06.708Z,28.72
2023-05-01T11:36:06.711Z,28.72
2023-05-01T11:37:06.824Z,28.69
2023-05-01T11:38:06.712Z,28.71
2023-05-01T11:39:06.735Z,28.72
2023-05-01T11:40:06.723Z,28.69
2023-05-01T11:41:06.720Z,28.69
2023-05-01T11:42:06.775Z,28.71
2023-05-01T11:43:06.708Z,28.72
2023-05-01T11:44:06.694Z,28.66
2023-05-01T11:45:06.773Z,28.71
2023-05-01T11:46:06.706Z,28.68
2023-05-01T11:47:06.685Z,28.71
2023-05-01T11:48:06.811Z,28.72
2023-05-01T11:49:06.695Z,28.71
2023-05-01T11:50:06.663Z,28.71
2023-05-01T11:51:06.702Z,28.70
2023-05-01T11:52:06.654Z,28.68
2023-05-01T11:53:06.637Z,28.64
2023-05-01T11:54:06.635Z,28.68
2023-05-01T11:55:06.682Z,28.68
2023-05-01T11:56:13.291Z,28.68
2023-05-01T11:57:07.631Z,28.70
2023-05-01T11:58:06.644Z,28.66
2023-05-01T11:59:06.608Z,28.67
2023-05-01T12:00:06.617Z,28.64
2023-05-01T12:01:06.588Z,28.67
2023-05-01T12:02:06.613Z,28.65
2023-05-01T12:03:06.858Z,28.72
2023-05-01T12:04:06.774Z,28.69
2023-05-01T12:05:06.586Z,28.66
2023-05-01T12:06:06.565Z,28.61
2023-05-01T12:07:06.588Z,28.68
2023-05-01T12:08:06.676Z,28.63
2023-05-01T12:09:06.695Z,28.68
2023-05-01T12:10:06.752Z,28.72
2023-05-01T12:11:06.799Z,28.64
2023-05-01T12:12:06.885Z,28.68
2023-05-01T12:13:06.966Z,28.60
2023-05-01T12:14:06.971Z,28.66
2023-05-01T12:15:07.014Z,28.75
2023-05-01T12:16:07.066Z,28.70
2023-05-01T12:17:07.203Z,28.66
2023-05-01T12:18:07.200Z,28.67
2023-05-01T12:19:07.220Z,28.72
2023-05-01T12:20:07.261Z,28.66
2023-05-01T12:21:07.311Z,28.64
2023-05-01T12:22:07.371Z,28.64
2023-05-01T12:23:07.462Z,28.69
2023-05-01T12:24:07.468Z,28.64
2023-05-01T12:25:07.521Z,28.69
2023-05-01T12:26:07.563Z,28.74
2023-05-01T12:27:07.631Z,28.74
2023-05-01T12:28:07.661Z,28.63
2023-05-01T12:29:07.718Z,28.66
2023-05-01T12:30:07.800Z,28.65
2023-05-01T12:31:07.933Z,28.71
2023-05-01T12:32:07.947Z,28.62
2023-05-01T12:33:07.911Z,28.69
2023-05-01T12:34:07.941Z,28.68
2023-05-01T12:35:07.996Z,28.68
2023-05-01T12:36:08.032Z,28.69
2023-05-01T12:37:08.088Z,28.66
2023-05-01T12:38:08.144Z,28.67
2023-05-01T12:39:08.175Z,28.69
2023-05-01T12:40:08.286Z,28.61
2023-05-01T12:41:08.246Z,28.62
2023-05-01T12:42:08.383Z,28.67
2023-05-01T12:43:08.385Z,28.71
2023-05-01T12:44:08.405Z,28.70
2023-05-01T12:45:08.449Z,28.63
2023-05-01T12:46:08.506Z,28.64
2023-05-01T12:47:08.546Z,28.58
2023-05-01T12:48:08.609Z,28.70
2023-05-01T12:49:08.571Z,28.67
2023-05-01T12:50:08.545Z,28.64
2023-05-01T12:51:08.537Z,28.61
2023-05-01T12:52:08.601Z,28.64